createdAt,value
2018-12-04T00:02:04.245Z,82.70
2018-12-04T00:04:32.966Z,80.20
2018-12-04T00:07:01.667Z,75.12
2018-12-04T00:09:31.079Z,77.78
2018-12-04T00:11:59.948Z,68.22
2018-12-04T00:14:28.651Z,79.65
2018-12-04T00:16:57.491Z,72.70
2018-12-04T00:19:26.251Z,70.37
2018-12-04T00:21:54.963Z,69.72
2018-12-04T00:24:23.732Z,68.78
2018-12-04T00:26:52.456Z,71.30
2018-12-04T00:29:21.277Z,66.35
2018-12-04T00:31:50.038Z,60.30
2018-12-04T00:34:18.751Z,61.75
2018-12-04T00:36:47.624Z,67.30
2018-12-04T00:39:16.425Z,66.30
2018-12-04T00:41:45.207Z,68.35
2018-12-04T00:44:13.999Z,64.85
2018-12-04T00:46:42.734Z,65.15
2018-12-04T00:49:11.534Z,63.28
2018-12-04T00:51:40.314Z,56.58
2018-12-04T00:54:09.339Z,59.80
2018-12-04T00:56:38.153Z,58.75
2018-12-04T00:59:06.851Z,55.48
2018-12-04T01:01:36.679Z,53.85
2018-12-04T01:04:05.522Z,59.33
2018-12-04T01:06:34.243Z,58.58
2018-12-04T01:09:09.000Z,58.00
2018-12-04T01:11:37.827Z,57.25
2018-12-04T01:14:06.684Z,54.58
2018-12-04T01:16:35.465Z,53.78
2018-12-04T01:19:04.370Z,46.85
2018-12-04T01:21:33.990Z,48.13
2018-12-04T01:24:02.851Z,50.23
2018-12-04T01:26:31.575Z,55.30
2018-12-04T01:29:01.513Z,42.60
2018-12-04T01:31:30.212Z,45.15
2018-12-04T01:33:58.926Z,48.90
2018-12-04T01:36:27.678Z,58.68
2018-12-04T01:38:56.370Z,46.48
2018-12-04T01:41:25.184Z,45.20
2018-12-04T01:43:53.879Z,44.42
2018-12-04T01:46:22.601Z,43.45
2018-12-04T01:48:51.378Z,43.98
2018-12-04T01:51:20.067Z,44.35
2018-12-04T01:53:48.771Z,43.02
2018-12-04T01:56:17.550Z,49.18
2018-12-04T01:58:46.427Z,36.10
2018-12-04T02:01:15.137Z,36.75
2018-12-04T02:03:43.839Z,35.95
2018-12-04T02:06:13.105Z,33.90
2018-12-04T02:08:41.981Z,38.23
2018-12-04T02:11:10.736Z,38.80
2018-12-04T02:13:39.564Z,37.88
2018-12-04T02:16:08.390Z,37.13
2018-12-04T02:18:37.139Z,42.15
2018-12-04T02:21:05.933Z,39.20
2018-12-04T02:23:34.656Z,32.17
2018-12-04T02:26:03.500Z,35.13
2018-12-04T02:28:37.832Z,37.38
2018-12-04T02:31:06.618Z,33.02
2018-12-04T02:33:35.421Z,36.73
2018-12-04T02:36:04.206Z,31.45
2018-12-04T02:38:33.001Z,33.73
2018-12-04T02:41:01.795Z,33.35
2018-12-04T02:43:30.594Z,32.35
2018-12-04T02:45:59.364Z,35.63
2018-12-04T02:48:28.063Z,33.35
2018-12-04T02:50:56.841Z,32.58
2018-12-04T02:53:25.591Z,37.98
2018-12-04T02:55:54.310Z,33.85
2018-12-04T02:58:23.167Z,28.60
2018-12-04T03:00:51.877Z,32.80
2018-12-04T03:03:20.643Z,32.33
2018-12-04T03:05:49.365Z,33.38
2018-12-04T03:08:18.166Z,33.30
2018-12-04T03:10:47.051Z,31.77
2018-12-04T03:13:16.916Z,30.50
2018-12-04T03:15:45.807Z,32.63
2018-12-04T03:18:14.452Z,30.27
2018-12-04T03:20:43.279Z,27.65
2018-12-04T03:23:12.033Z,28.57
2018-12-04T03:25:40.819Z,29.82
2018-12-04T03:28:09.533Z,26.02
2018-12-04T03:30:40.238Z,25.48
2018-12-04T03:33:08.984Z,26.12
2018-12-04T03:35:37.747Z,29.48
2018-12-04T03:38:06.427Z,22.62
2018-12-04T03:40:35.691Z,20.68
2018-12-04T03:43:04.478Z,21.02
2018-12-04T03:45:33.297Z,28.38
2018-12-04T03:48:02.129Z,24.90
2018-12-04T03:50:30.883Z,23.95
2018-12-04T03:52:59.665Z,22.50
2018-12-04T03:55:28.454Z,23.30
2018-12-04T03:57:57.180Z,23.05
2018-12-04T04:00:26.080Z,17.35
2018-12-04T04:02:54.866Z,23.73
2018-12-04T04:05:24.641Z,17.75
2018-12-04T04:07:53.425Z,21.70
2018-12-04T04:10:22.226Z,22.93
2018-12-04T04:12:50.990Z,19.02
2018-12-04T04:15:20.579Z,18.77
2018-12-04T04:17:49.447Z,22.13
2018-12-04T04:20:18.223Z,18.15
2018-12-04T04:22:46.988Z,20.65
2018-12-04T04:25:16.506Z,19.20
2018-12-04T04:27:45.305Z,22.13
2018-12-04T04:30:14.087Z,20.27
2018-12-04T04:32:42.869Z,17.20
2018-12-04T04:35:13.771Z,24.27
2018-12-04T04:37:42.442Z,18.15
2018-12-04T04:40:11.181Z,21.30
2018-12-04T04:42:39.959Z,21.77
2018-12-04T04:45:08.818Z,20.72
2018-12-04T04:47:37.524Z,17.55
2018-12-04T04:50:06.447Z,17.62
2018-12-04T04:52:35.186Z,16.80
2018-12-04T04:55:04.643Z,18.35
2018-12-04T04:57:33.450Z,15.75
2018-12-04T05:00:02.287Z,17.27
2018-12-04T05:02:32.044Z,19.52
2018-12-04T05:05:00.832Z,19.73
2018-12-04T05:07:29.637Z,13.70
2018-12-04T05:09:58.518Z,15.53
2018-12-04T05:12:27.253Z,16.62
2018-12-04T05:14:56.107Z,18.48
2018-12-04T05:17:24.998Z,16.85
2018-12-04T05:19:55.021Z,17.25
2018-12-04T05:22:23.736Z,14.43
2018-12-04T05:24:52.707Z,15.20
2018-12-04T05:27:21.557Z,16.27
2018-12-04T05:29:51.152Z,14.10
2018-12-04T05:32:19.955Z,14.35
2018-12-04T05:34:49.284Z,13.28
2018-12-04T05:37:18.029Z,14.87
2018-12-04T05:39:46.775Z,11.65
2018-12-04T05:42:15.613Z,13.98
2018-12-04T05:44:44.349Z,12.00
2018-12-04T05:47:13.064Z,13.05
2018-12-04T05:49:41.905Z,12.35
2018-12-04T05:52:11.198Z,10.65
2018-12-04T05:54:39.935Z,12.15
2018-12-04T05:57:08.704Z,15.85
2018-12-04T05:59:37.441Z,12.45
2018-12-04T06:02:06.275Z,12.28
2018-12-04T06:04:35.175Z,13.45
2018-12-04T06:07:04.103Z,13.22
2018-12-04T06:09:32.917Z,13.75
2018-12-04T06:12:01.735Z,9.88
2018-12-04T06:14:30.507Z,7.85
2018-12-04T06:16:59.323Z,7.58
2018-12-04T06:19:28.101Z,7.60
2018-12-04T06:21:56.861Z,6.97
2018-12-04T06:24:25.632Z,7.20
2018-12-04T06:26:54.347Z,5.30
2018-12-04T06:29:23.224Z,6.80
2018-12-04T06:31:52.093Z,7.03
2018-12-04T06:34:20.868Z,7.03
2018-12-04T06:36:49.593Z,6.25
2018-12-04T06:39:20.125Z,6.78
2018-12-04T06:41:48.900Z,5.42
2018-12-04T06:44:17.584Z,5.20
2018-12-04T06:46:46.476Z,5.33
2018-12-04T06:49:15.267Z,5.35
2018-12-04T06:51:43.969Z,5.30
2018-12-04T06:54:12.705Z,5.87
2018-12-04T06:56:41.538Z,5.55
2018-12-04T06:59:10.430Z,5.30
2018-12-04T07:01:39.184Z,4.85
2018-12-04T07:04:07.937Z,4.10
2018-12-04T07:06:36.697Z,4.55
2018-12-04T07:09:07.672Z,4.33
2018-12-04T07:11:37.099Z,5.50
2018-12-04T07:14:08.096Z,4.25
2018-12-04T07:16:36.798Z,4.17
2018-12-04T07:19:05.643Z,5.78
2018-12-04T07:21:34.373Z,3.65
2018-12-04T07:24:03.089Z,5.53
2018-12-04T07:26:31.892Z,5.08
2018-12-04T07:29:00.643Z,4.75
2018-12-04T07:31:29.447Z,5.33
2018-12-04T07:33:58.233Z,4.37
2018-12-04T07:36:27.055Z,4.67
2018-12-04T07:38:55.828Z,3.47
2018-12-04T07:41:24.705Z,4.42
2018-12-04T07:43:53.475Z,4.95
2018-12-04T07:46:22.294Z,4.87
2018-12-04T07:48:51.019Z,3.80
2018-12-04T07:51:19.811Z,3.50
2018-12-04T07:53:48.519Z,3.42
2018-12-04T07:56:17.297Z,5.75
2018-12-04T07:58:46.014Z,3.70
2018-12-04T08:01:14.777Z,4.10
2018-12-04T08:03:43.477Z,4.10
2018-12-04T08:06:12.195Z,3.70
2018-12-04T08:08:41.049Z,4.40
2018-12-04T08:11:09.771Z,2.90
2018-12-04T08:13:38.535Z,4.75
2018-12-04T08:16:07.311Z,4.00
2018-12-04T08:18:38.459Z,4.15
2018-12-04T08:21:09.053Z,3.58
2018-12-04T08:23:37.836Z,3.22
2018-12-04T08:26:08.469Z,4.22
2018-12-04T08:28:37.202Z,4.08
2018-12-04T08:31:06.057Z,4.62
2018-12-04T08:33:35.880Z,3.95
2018-12-04T08:36:04.704Z,3.83
2018-12-04T08:38:33.475Z,3.85
2018-12-04T08:41:02.243Z,3.95
2018-12-04T08:43:30.962Z,3.90
2018-12-04T08:45:59.728Z,4.12
2018-12-04T08:48:28.537Z,4.95
2018-12-04T08:50:57.861Z,3.22
2018-12-04T08:53:26.714Z,4.17
2018-12-04T08:55:55.471Z,3.35
2018-12-04T08:58:24.266Z,4.67
2018-12-04T09:00:53.088Z,3.83
2018-12-04T09:03:21.877Z,3.25
2018-12-04T09:05:51.198Z,3.80
2018-12-04T09:08:20.838Z,3.10
2018-12-04T09:10:49.629Z,2.50
2018-12-04T09:13:18.420Z,2.60
2018-12-04T09:15:48.284Z,2.85
2018-12-04T09:18:17.762Z,4.42
2018-12-04T09:20:46.672Z,2.90
2018-12-04T09:23:15.580Z,3.10
2018-12-04T09:25:44.419Z,3.75
2018-12-04T09:28:13.725Z,2.83
2018-12-04T09:30:42.480Z,4.40
2018-12-04T09:33:11.709Z,4.10
2018-12-04T09:35:40.581Z,3.08
2018-12-04T09:38:09.282Z,3.75
2018-12-04T09:40:38.015Z,3.67
2018-12-04T09:43:06.751Z,2.30
2018-12-04T09:45:35.470Z,3.25
2018-12-04T09:48:04.563Z,2.77
2018-12-04T09:50:33.314Z,3.27
2018-12-04T09:53:05.198Z,2.77
2018-12-04T09:55:34.889Z,2.52
2018-12-04T09:58:03.737Z,2.33
2018-12-04T10:00:32.534Z,2.55
2018-12-04T10:03:01.264Z,2.75
2018-12-04T10:05:30.006Z,2.17
2018-12-04T10:07:58.713Z,1.90
2018-12-04T10:10:27.496Z,2.98
2018-12-04T10:12:57.964Z,3.17
2018-12-04T10:15:28.607Z,3.42
2018-12-04T10:17:57.495Z,2.80
2018-12-04T10:20:26.482Z,2.02
2018-12-04T10:22:55.225Z,2.33
2018-12-04T10:25:24.120Z,3.87
2018-12-04T10:27:52.946Z,9.43
2018-12-04T10:30:21.676Z,25.55
2018-12-04T10:32:51.965Z,48.25
2018-12-04T10:35:21.150Z,76.42
2018-12-04T10:37:49.835Z,142.30
2018-12-04T10:40:18.574Z,179.93
2018-12-04T10:42:47.921Z,219.05
2018-12-04T10:45:19.114Z,236.30
2018-12-04T10:47:50.817Z,278.10
2018-12-04T10:50:20.327Z,333.90
2018-12-04T10:52:50.772Z,313.75
2018-12-04T10:55:19.710Z,330.70
2018-12-04T10:57:48.478Z,330.83
2018-12-04T11:00:22.689Z,350.38
2018-12-04T11:02:53.475Z,384.55
2018-12-04T11:05:22.248Z,359.90
2018-12-04T11:07:50.972Z,340.77
2018-12-04T11:10:19.707Z,397.63
2018-12-04T11:12:48.529Z,413.42
2018-12-04T11:15:17.252Z,390.60
2018-12-04T11:17:46.002Z,455.85
2018-12-04T11:20:16.021Z,392.95
2018-12-04T11:22:44.871Z,382.62
2018-12-04T11:25:13.741Z,379.48
2018-12-04T11:27:43.508Z,395.03
2018-12-04T11:30:13.011Z,385.15
2018-12-04T11:32:43.027Z,371.85
2018-12-04T11:35:11.824Z,368.00
2018-12-04T11:37:40.587Z,374.80
2018-12-04T11:40:09.458Z,362.05
2018-12-04T11:42:38.186Z,359.90
2018-12-04T11:45:07.126Z,351.73
2018-12-04T11:47:35.946Z,333.55
2018-12-04T11:50:05.017Z,354.57
2018-12-04T11:52:33.809Z,372.07
2018-12-04T11:55:02.664Z,360.60
2018-12-04T11:57:31.535Z,357.98
2018-12-04T12:00:00.423Z,358.35
2018-12-04T12:02:29.147Z,350.57
2018-12-04T12:04:57.851Z,357.80
2018-12-04T12:07:28.615Z,321.13
2018-12-04T12:09:57.434Z,329.98
2018-12-04T12:12:26.250Z,308.77
2018-12-04T12:14:55.040Z,298.50
2018-12-04T12:17:23.937Z,294.48
2018-12-04T12:19:52.707Z,286.27
2018-12-04T12:22:21.431Z,272.00
2018-12-04T12:24:50.278Z,276.98
2018-12-04T12:27:19.070Z,276.88
2018-12-04T12:29:47.813Z,277.52
2018-12-04T12:32:16.607Z,254.38
2018-12-04T12:34:45.390Z,266.55
2018-12-04T12:37:14.207Z,270.27
2018-12-04T12:39:44.002Z,262.02
2018-12-04T12:42:14.407Z,267.23
2018-12-04T12:44:43.143Z,263.55
2018-12-04T12:47:12.018Z,259.05
2018-12-04T12:49:40.762Z,235.45
2018-12-04T12:52:10.455Z,235.78
2018-12-04T12:54:39.283Z,242.32
2018-12-04T12:57:08.145Z,217.25
2018-12-04T12:59:36.861Z,227.40
2018-12-04T13:02:05.667Z,215.22
2018-12-04T13:04:34.550Z,219.30
2018-12-04T13:07:03.364Z,223.85
2018-12-04T13:09:32.194Z,209.05
2018-12-04T13:12:01.069Z,226.80
2018-12-04T13:14:29.861Z,220.52
2018-12-04T13:16:58.925Z,192.70
2018-12-04T13:19:27.709Z,189.50
2018-12-04T13:21:56.529Z,182.07
2018-12-04T13:24:25.299Z,194.97
2018-12-04T13:26:54.197Z,181.50
2018-12-04T13:29:22.963Z,164.13
2018-12-04T13:31:51.700Z,185.12
2018-12-04T13:34:20.515Z,165.30
2018-12-04T13:36:49.239Z,166.28
2018-12-04T13:39:18.028Z,161.70
2018-12-04T13:41:46.876Z,177.35
2018-12-04T13:44:15.632Z,163.12
2018-12-04T13:46:44.985Z,160.63
2018-12-04T13:49:13.802Z,166.07
2018-12-04T13:51:42.726Z,168.22
2018-12-04T13:54:11.631Z,156.52
2018-12-04T13:56:41.985Z,158.37
2018-12-04T13:59:10.676Z,152.75
2018-12-04T14:01:39.578Z,193.50
2018-12-04T14:04:08.334Z,143.97
2018-12-04T14:06:37.916Z,140.45
2018-12-04T14:09:07.091Z,143.28
2018-12-04T14:11:36.960Z,142.07
2018-12-04T14:14:05.686Z,137.37
2018-12-04T14:16:35.273Z,152.45
2018-12-04T14:19:04.150Z,99.83
2018-12-04T14:21:32.964Z,111.68
2018-12-04T14:24:01.787Z,137.03
2018-12-04T14:26:31.652Z,132.18
2018-12-04T14:29:00.399Z,133.05
2018-12-04T14:31:29.269Z,118.75
2018-12-04T14:33:58.099Z,128.23
2018-12-04T14:36:28.960Z,118.90
2018-12-04T14:38:57.748Z,114.67
2018-12-04T14:41:26.535Z,107.67
2018-12-04T14:43:55.307Z,110.40
2018-12-04T14:46:24.194Z,104.47
2018-12-04T14:48:52.985Z,104.43
2018-12-04T14:51:21.783Z,111.15
2018-12-04T14:53:51.588Z,103.47
2018-12-04T14:56:20.509Z,103.85
2018-12-04T14:58:50.810Z,107.15
2018-12-04T15:01:19.769Z,101.47
2018-12-04T15:03:49.360Z,104.32
2018-12-04T15:06:18.233Z,95.67
2018-12-04T15:08:47.430Z,86.85
2018-12-04T15:11:17.315Z,91.67
2018-12-04T15:13:46.127Z,86.75
2018-12-04T15:16:14.895Z,84.90
2018-12-04T15:18:43.654Z,86.25
2018-12-04T15:21:12.532Z,86.78
2018-12-04T15:23:41.310Z,84.10
2018-12-04T15:26:10.733Z,82.88
2018-12-04T15:28:39.490Z,73.07
2018-12-04T15:31:08.419Z,75.12
2018-12-04T15:33:37.360Z,77.03
2018-12-04T15:36:06.138Z,67.17
2018-12-04T15:38:35.038Z,73.90
2018-12-04T15:41:04.925Z,79.82
2018-12-04T15:43:33.816Z,72.22
2018-12-04T15:46:02.726Z,71.95
2018-12-04T15:48:31.603Z,73.37
2018-12-04T15:51:00.379Z,65.95
2018-12-04T15:53:30.289Z,72.87
2018-12-04T15:55:59.090Z,68.02
2018-12-04T15:58:27.811Z,70.85
2018-12-04T16:00:56.733Z,59.58
2018-12-04T16:03:25.477Z,66.17
2018-12-04T16:05:54.260Z,62.85
2018-12-04T16:08:22.983Z,62.65
2018-12-04T16:10:51.837Z,63.48
2018-12-04T16:13:20.612Z,56.85
2018-12-04T16:15:49.324Z,58.45
2018-12-04T16:18:18.097Z,52.13
2018-12-04T16:20:46.935Z,57.80
2018-12-04T16:23:15.663Z,53.68
2018-12-04T16:25:44.461Z,51.20
2018-12-04T16:28:13.156Z,56.37
2018-12-04T16:30:41.888Z,49.93
2018-12-04T16:33:10.634Z,49.50
2018-12-04T16:35:39.452Z,55.38
2018-12-04T16:38:08.227Z,51.83
2018-12-04T16:40:37.050Z,48.75
2018-12-04T16:43:05.918Z,50.85
2018-12-04T16:45:36.218Z,47.38
2018-12-04T16:48:05.114Z,42.10
2018-12-04T16:50:33.828Z,45.25
2018-12-04T16:53:02.570Z,47.83
2018-12-04T16:55:31.361Z,44.45
2018-12-04T16:58:00.219Z,43.73
2018-12-04T17:00:29.161Z,48.15
2018-12-04T17:02:57.847Z,47.75
2018-12-04T17:05:26.619Z,46.98
2018-12-04T17:07:55.324Z,50.15
2018-12-04T17:10:24.159Z,44.67
2018-12-04T17:12:52.852Z,42.83
2018-12-04T17:15:21.616Z,38.08
2018-12-04T17:17:50.438Z,33.20
2018-12-04T17:20:19.231Z,32.30
2018-12-04T17:22:48.068Z,34.55
2018-12-04T17:25:16.851Z,29.40
2018-12-04T17:27:45.544Z,30.57
2018-12-04T17:30:14.358Z,28.02
2018-12-04T17:32:43.251Z,24.77
2018-12-04T17:35:12.149Z,20.35
2018-12-04T17:37:40.846Z,22.07
2018-12-04T17:40:09.761Z,27.00
2018-12-04T17:42:38.541Z,23.45
2018-12-04T17:45:07.385Z,25.35
2018-12-04T17:47:36.143Z,25.40
2018-12-04T17:50:05.980Z,25.37
2018-12-04T17:52:34.713Z,20.97
2018-12-04T17:55:03.609Z,19.20
2018-12-04T17:57:32.321Z,22.07
2018-12-04T18:00:01.046Z,22.42
2018-12-04T18:02:31.845Z,25.65
2018-12-04T18:05:00.603Z,23.85
2018-12-04T18:07:31.309Z,21.27
2018-12-04T18:10:00.099Z,47.48
2018-12-04T18:12:28.852Z,23.32
2018-12-04T18:14:59.722Z,23.47
2018-12-04T18:17:28.497Z,27.15
2018-12-04T18:19:57.288Z,29.32
2018-12-04T18:22:26.105Z,33.30
2018-12-04T18:24:54.808Z,25.80
2018-12-04T18:27:23.557Z,25.48
2018-12-04T18:29:52.349Z,27.05
2018-12-04T18:32:21.176Z,27.35
2018-12-04T18:34:49.950Z,25.55
2018-12-04T18:37:18.795Z,21.45
2018-12-04T18:39:47.727Z,24.20
2018-12-04T18:42:16.597Z,22.40
2018-12-04T18:44:45.502Z,22.48
2018-12-04T18:47:14.260Z,22.32
2018-12-04T18:49:42.973Z,23.85
2018-12-04T18:52:11.722Z,22.50
2018-12-04T18:54:40.752Z,25.37
2018-12-04T18:57:09.527Z,24.52
2018-12-04T18:59:38.233Z,23.75
2018-12-04T19:02:08.142Z,20.45
2018-12-04T19:04:37.078Z,23.50
2018-12-04T19:07:06.862Z,19.42
2018-12-04T19:09:36.257Z,25.57
2018-12-04T19:12:04.979Z,18.85
2018-12-04T19:14:34.736Z,21.37
2018-12-04T19:17:03.601Z,21.50
2018-12-04T19:19:32.372Z,20.62
2018-12-04T19:22:01.173Z,14.45
2018-12-04T19:24:30.074Z,14.80
2018-12-04T19:26:58.962Z,13.90
2018-12-04T19:29:27.770Z,10.48
2018-12-04T19:31:56.965Z,14.43
2018-12-04T19:34:25.796Z,12.07
2018-12-04T19:36:54.535Z,12.23
2018-12-04T19:39:23.380Z,11.95
2018-12-04T19:41:52.091Z,12.93
2018-12-04T19:44:20.931Z,12.03
2018-12-04T19:46:49.655Z,11.40
2018-12-04T19:49:18.590Z,9.98
2018-12-04T19:51:47.292Z,11.57
2018-12-04T19:54:16.025Z,8.43
2018-12-04T19:56:44.904Z,8.05
2018-12-04T19:59:13.566Z,10.15
2018-12-04T20:01:42.506Z,11.25
2018-12-04T20:04:11.368Z,11.12
2018-12-04T20:06:40.277Z,9.30
2018-12-04T20:09:10.442Z,12.95
2018-12-04T20:11:41.109Z,10.53
2018-12-04T20:14:09.899Z,9.88
2018-12-04T20:16:38.603Z,11.65
2018-12-04T20:19:07.478Z,9.98
2018-12-04T20:21:36.364Z,8.78
2018-12-04T20:24:05.151Z,15.53
2018-12-04T20:26:33.939Z,11.35
2018-12-04T20:29:04.188Z,9.98
2018-12-04T20:31:33.869Z,10.88
2018-12-04T20:34:03.729Z,9.38
2018-12-04T20:36:32.568Z,13.80
2018-12-04T20:39:01.648Z,10.48
2018-12-04T20:41:31.513Z,9.10
2018-12-04T20:44:00.361Z,10.60
2018-12-04T20:46:29.151Z,12.20
2018-12-04T20:48:57.943Z,33.95
2018-12-04T20:51:26.832Z,138.30
2018-12-04T20:53:55.591Z,124.78
2018-12-04T20:56:25.430Z,167.20
2018-12-04T20:58:54.154Z,177.50
2018-12-04T21:01:22.904Z,178.18
2018-12-04T21:03:51.584Z,168.72
2018-12-04T21:06:20.326Z,172.78
2018-12-04T21:08:49.178Z,182.85
2018-12-04T21:11:17.952Z,189.60
2018-12-04T21:13:46.621Z,195.03
2018-12-04T21:16:15.429Z,188.82
2018-12-04T21:18:45.441Z,182.78
2018-12-04T21:21:14.163Z,168.40
2018-12-04T21:23:43.015Z,180.35
2018-12-04T21:26:11.789Z,175.70
2018-12-04T21:28:42.732Z,173.30
2018-12-04T21:31:17.060Z,159.60
2018-12-04T21:33:51.520Z,153.55
2018-12-04T21:36:25.642Z,151.32
2018-12-04T21:39:00.054Z,156.28
2018-12-04T21:42:35.959Z,153.10
2018-12-04T21:45:10.555Z,147.40
2018-12-04T21:48:14.129Z,147.35
2018-12-04T21:50:43.018Z,143.35
2018-12-04T21:53:11.795Z,149.15
2018-12-04T21:55:40.584Z,139.82
2018-12-04T21:58:09.408Z,133.37
2018-12-04T22:00:38.344Z,130.63
2018-12-04T22:03:07.053Z,129.55
2018-12-04T22:05:35.920Z,133.43
2018-12-04T22:08:04.791Z,121.62
2018-12-04T22:10:33.500Z,115.85
2018-12-04T22:13:02.489Z,129.18
2018-12-04T22:15:31.243Z,123.67
2018-12-04T22:18:00.611Z,116.42
2018-12-04T22:20:30.594Z,124.20
2018-12-04T22:22:59.378Z,116.65
2018-12-04T22:25:28.148Z,111.85
2018-12-04T22:27:57.654Z,129.10
2018-12-04T22:30:26.370Z,101.90
2018-12-04T22:32:55.103Z,99.83
2018-12-04T22:35:23.834Z,98.85
2018-12-04T22:37:52.562Z,95.50
2018-12-04T22:40:21.365Z,103.58
2018-12-04T22:42:50.163Z,101.55
2018-12-04T22:45:26.691Z,95.60
2018-12-04T22:47:55.958Z,99.92
2018-12-04T22:50:24.897Z,86.70
2018-12-04T22:52:53.614Z,89.32
2018-12-04T22:55:22.524Z,87.72
2018-12-04T22:57:51.321Z,93.25
2018-12-04T23:00:29.103Z,82.60
2018-12-04T23:02:59.993Z,80.60
2018-12-04T23:05:28.713Z,89.22
2018-12-04T23:07:57.522Z,80.47
2018-12-04T23:10:26.315Z,73.92
2018-12-04T23:12:55.173Z,79.97
2018-12-04T23:15:24.107Z,69.87
2018-12-04T23:17:52.848Z,73.57
2018-12-04T23:20:21.933Z,68.00
2018-12-04T23:22:50.757Z,69.90
2018-12-04T23:25:19.548Z,71.12
2018-12-04T23:27:48.317Z,67.85
2018-12-04T23:30:17.183Z,66.62
2018-12-04T23:32:46.013Z,65.20
2018-12-04T23:35:14.784Z,70.97
2018-12-04T23:37:43.578Z,61.65
2018-12-04T23:40:12.372Z,60.12
2018-12-04T23:42:41.089Z,63.35
2018-12-04T23:45:10.053Z,63.63
2018-12-04T23:47:39.854Z,62.03
2018-12-04T23:50:08.710Z,60.38
2018-12-04T23:52:38.342Z,59.08
2018-12-04T23:55:07.161Z,62.62
2018-12-04T23:57:36.040Z,59.75
